Home   Weather   Pakistan   Lahore   Past weeks
Flag for Pakistan

Past Weather in Lahore, Pakistan — Yesterday and Last 2 Weeks

Currently: 73 °F. Thundershowers. Partly cloudy. (Weather station: Lahore Airport, Pakistan). See more current weather

Past Weather in Lahore — Graph

°F

Lahore Temperature Yesterday

Maximum temperature yesterday: 88 °F (at 2:55 pm)
Minimum temperature yesterday: 61 °F (at 5:55 am)
Average temperature yesterday: 73 °F

High & Low Weather Summary for the Past Weeks

 TemperatureHumidityPressure
High88 °F (Feb 25, 2:25 pm)100% (Feb 20, 4:55 am)30.12 "Hg (Feb 20, 4:55 am)
Low52 °F (Feb 20, 5:55 am)21% (Mar 2, 1:55 pm)29.59 "Hg (Feb 27, 2:55 am)
Average70 °F59%29.89 "Hg
* Reported Feb 19 10:25 pm — Mar 6 10:55 pm, Lahore. Weather by CustomWeather, © 2021

Note: Actual official high and low records may vary slightly from our data, if they occured in-between our weather recording intervals... More about our weather records

Lahore Weather History for the Previous 24 Hours

Scroll right to see more
 ConditionsComfort  
Time TempWeatherWind HumidityBarometerVisibility
10:55 pm
Sat, Mar 6
73 °FThunderstorms. Partly cloudy.9 mph50%29.83 "Hg2 mi
10:25 pm73 °FThunderstorms. Partly cloudy.7 mph50%29.80 "Hg2 mi
9:55 pm73 °FPassing clouds.7 mph50%29.80 "Hg3 mi
9:25 pm75 °FPassing clouds.7 mph44%29.83 "Hg3 mi
8:55 pm75 °FPassing clouds.6 mph44%29.83 "Hg3 mi
8:25 pm77 °FPassing clouds.5 mph39%29.83 "Hg3 mi
7:55 pm77 °FPassing clouds.3 mph39%29.83 "Hg3 mi
7:30 pm79 °FPassing clouds.7 mph34%29.80 "Hg3 mi
6:55 pm79 °FPassing clouds.7 mph34%29.80 "Hg3 mi
6:25 pm81 °FPassing clouds.6 mph30%29.80 "Hg4 mi
5:55 pm81 °FScattered clouds.9 mph30%29.80 "Hg4 mi
5:30 pm82 °FScattered clouds.6 mph28%29.80 "Hg4 mi
4:55 pm82 °FPassing clouds.3 mph28%29.80 "Hg4 mi
3:55 pm84 °FPassing clouds.8 mph27%29.83 "Hg4 mi
3:25 pm86 °FPassing clouds.6 mph25%29.83 "Hg4 mi
2:55 pm88 °FClear.8 mph24%29.83 "Hg4 mi
2:25 pm86 °FClear.5 mph25%29.83 "Hg4 mi
1:55 pm86 °FClear.5 mph25%29.83 "Hg4 mi
12:59 pm84 °FClear.7 mph31%29.86 "Hg4 mi
12:29 pm84 °FClear.5 mph31%29.89 "Hg4 mi
11:55 am82 °FHaze.3 mph32%29.89 "Hg3 mi
11:25 am79 °FScattered clouds.No wind32%29.92 "Hg2 mi
10:29 am75 °FScattered clouds.3 mph41%29.89 "Hg2 mi
9:59 am73 °FScattered clouds.7 mph44%29.92 "Hg2 mi
9:29 am72 °FScattered clouds.3 mph53%29.89 "Hg1 mi
8:55 am70 °FScattered clouds.No wind64%29.89 "Hg1 mi
8:25 am68 °FPassing clouds.No wind69%29.86 "Hg2 mi
7:55 am64 °FPassing clouds.5 mph73%29.86 "Hg2 mi
7:25 am61 °FPassing clouds.5 mph77%29.86 "Hg2 mi
6:55 am61 °FPassing clouds.5 mph77%29.83 "Hg2 mi
6:25 am61 °FPassing clouds.5 mph77%29.83 "Hg2 mi
5:55 am61 °FClear.5 mph77%29.83 "Hg2 mi
5:25 am63 °FClear.5 mph77%29.83 "Hg2 mi
4:55 am63 °FClear.5 mph77%29.83 "Hg2 mi
4:25 am64 °FClear.3 mph73%29.86 "Hg2 mi
3:55 am64 °FClear.5 mph73%29.86 "Hg2 mi
3:25 am64 °FClear.No wind68%29.86 "Hg2 mi
2:55 am66 °FClear.5 mph64%29.86 "Hg2 mi
2:25 am66 °FClear.5 mph64%29.86 "Hg2 mi
1:55 am66 °FClear.3 mph64%29.86 "Hg2 mi
1:25 am66 °FClear.3 mph64%29.89 "Hg2 mi
12:55 am68 °FClear.3 mph60%29.89 "Hg2 mi
12:25 am68 °FClear.No wind60%29.89 "Hg2 mi
Weather by CustomWeather, © 2021

See weather overview